createdAt,value
2016-04-18T00:00:21.458Z,6.67
2016-04-18T00:01:21.710Z,6.71
2016-04-18T00:02:21.463Z,6.7
2016-04-18T00:03:21.451Z,6.71
2016-04-18T00:04:21.453Z,6.8
2016-04-18T00:05:21.457Z,6.78
2016-04-18T00:06:21.459Z,6.72
2016-04-18T00:07:21.462Z,6.8
2016-04-18T00:08:21.449Z,6.78
2016-04-18T00:09:21.467Z,6.83
2016-04-18T00:10:21.454Z,6.75
2016-04-18T00:11:21.441Z,6.85
2016-04-18T00:12:21.459Z,6.75
2016-04-18T00:13:21.446Z,6.77
2016-04-18T00:14:21.464Z,6.78
2016-04-18T00:15:21.473Z,6.82
2016-04-18T00:16:21.518Z,6.8
2016-04-18T00:17:21.564Z,6.89
2016-04-18T00:18:21.594Z,6.89
2016-04-18T00:19:21.656Z,6.89
2016-04-18T00:20:21.672Z,6.89
2016-04-18T00:21:21.362Z,6.9
2016-04-18T00:22:21.692Z,6.87
2016-04-18T00:23:21.710Z,6.96
2016-04-18T00:24:21.729Z,6.92
2016-04-18T00:25:21.742Z,6.9
2016-04-18T00:26:21.750Z,6.92
2016-04-18T00:27:21.759Z,6.97
2016-04-18T00:28:21.767Z,6.95
2016-04-18T00:29:21.761Z,6.86
2016-04-18T00:30:21.767Z,6.93
2016-04-18T00:31:21.772Z,6.93
2016-04-18T00:32:21.776Z,6.95
2016-04-18T00:33:21.765Z,6.96
2016-04-18T00:34:21.785Z,7.01
2016-04-18T00:35:21.789Z,6.96
2016-04-18T00:36:21.777Z,7
2016-04-18T00:37:21.764Z,7
2016-04-18T00:38:21.784Z,7.1
2016-04-18T00:39:21.631Z,6.97
2016-04-18T00:40:21.774Z,6.96
2016-04-18T00:41:21.777Z,7
2016-04-18T00:42:21.781Z,7.01
2016-04-18T00:43:21.784Z,7.05
2016-04-18T00:44:21.787Z,6.95
2016-04-18T00:45:21.775Z,7.04
2016-04-18T00:46:21.777Z,7.04
2016-04-18T00:47:21.780Z,7.03
2016-04-18T00:48:21.782Z,7.07
2016-04-18T00:49:21.770Z,7.05
2016-04-18T00:50:21.773Z,7.03
2016-04-18T00:51:21.775Z,7.07
2016-04-18T00:52:21.778Z,7.04
2016-04-18T00:53:21.780Z,7.05
2016-04-18T00:54:21.768Z,7.07
2016-04-18T00:55:21.771Z,7.07
2016-04-18T00:56:21.774Z,7.07
2016-04-18T00:57:21.776Z,7.07
2016-04-18T00:58:21.779Z,7.07
2016-04-18T00:59:21.766Z,6.97
2016-04-18T01:00:21.769Z,6.96
2016-04-18T01:01:21.771Z,7.07
2016-04-18T01:02:21.774Z,6.97
2016-04-18T01:03:21.760Z,7
2016-04-18T01:04:21.763Z,6.95
2016-04-18T01:05:21.766Z,6.97
2016-04-18T01:06:21.769Z,6.96
2016-04-18T01:07:21.771Z,6.93
2016-04-18T01:08:21.774Z,6.93
2016-04-18T01:09:21.761Z,6.92
2016-04-18T01:10:21.779Z,6.87
2016-04-18T01:11:21.767Z,6.92
2016-04-18T01:12:21.785Z,6.87
2016-04-18T01:13:21.772Z,6.87
2016-04-18T01:14:21.775Z,6.86
2016-04-18T01:15:21.761Z,6.85
2016-04-18T01:16:21.764Z,6.89
2016-04-18T01:17:21.767Z,6.87
2016-04-18T01:18:21.753Z,6.83
2016-04-18T01:19:21.757Z,6.92
2016-04-18T01:20:21.775Z,6.95
2016-04-18T01:21:21.777Z,6.92
2016-04-18T01:22:21.765Z,6.95
2016-04-18T01:23:21.767Z,6.9
2016-04-18T01:24:21.754Z,6.92
2016-04-18T01:25:21.758Z,6.95
2016-04-18T01:26:21.761Z,6.95
2016-04-18T01:27:21.762Z,7.03
2016-04-18T01:28:21.750Z,7
2016-04-18T01:29:21.768Z,7.03
2016-04-18T01:30:21.755Z,7.01
2016-04-18T01:31:21.774Z,7.01
2016-04-18T01:32:21.760Z,6.97
2016-04-18T01:33:21.748Z,7.01
2016-04-18T01:34:21.766Z,7.01
2016-04-18T01:35:21.754Z,6.95
2016-04-18T01:36:21.756Z,6.97
2016-04-18T01:37:21.774Z,7.05
2016-04-18T01:38:21.761Z,7.01
2016-04-18T01:39:21.764Z,6.95
2016-04-18T01:40:21.766Z,7.04
2016-04-18T01:41:21.770Z,7.05
2016-04-18T01:42:21.756Z,7
2016-04-18T01:43:21.743Z,7.05
2016-04-18T01:44:21.746Z,7.03
2016-04-18T01:45:21.749Z,7.05
2016-04-18T01:46:21.767Z,7.05
2016-04-18T01:47:21.754Z,7.04
2016-04-18T01:48:21.756Z,7.04
2016-04-18T01:49:21.744Z,7.07
2016-04-18T01:50:21.746Z,7.04
2016-04-18T01:51:21.749Z,7.05
2016-04-18T01:52:21.752Z,7.07
2016-04-18T01:53:21.755Z,7.1
2016-04-18T01:54:21.819Z,7.1
2016-04-18T01:55:21.760Z,7.1
2016-04-18T01:56:21.763Z,7.11
2016-04-18T01:57:21.750Z,7.1
2016-04-18T01:58:21.596Z,7.05
2016-04-18T01:59:21.739Z,7.05
2016-04-18T02:00:21.773Z,7.03
2016-04-18T02:01:21.760Z,7.08
2016-04-18T02:02:21.763Z,7.08
2016-04-18T02:03:21.749Z,7.07
2016-04-18T02:04:21.738Z,7.04
2016-04-18T02:05:21.740Z,7.01
2016-04-18T02:06:21.742Z,7.05
2016-04-18T02:07:21.745Z,7.1
2016-04-18T02:08:21.749Z,7.07
2016-04-18T02:09:21.813Z,7.1
2016-04-18T02:10:21.737Z,7.05
2016-04-18T02:11:21.756Z,7.1
2016-04-18T02:12:21.743Z,7.1
2016-04-18T02:13:21.746Z,7.08
2016-04-18T02:14:21.889Z,7.03
2016-04-18T02:15:21.751Z,7.1
2016-04-18T02:16:21.739Z,7.07
2016-04-18T02:17:21.741Z,7.08
2016-04-18T02:18:21.759Z,7.1
2016-04-18T02:19:21.747Z,7.07
2016-04-18T02:20:21.765Z,7.05
2016-04-18T02:21:21.752Z,7.1
2016-04-18T02:22:21.755Z,7.07
2016-04-18T02:23:21.757Z,7.11
2016-04-18T02:24:21.728Z,7.08
2016-04-18T02:25:21.730Z,7.1
2016-04-18T02:26:21.734Z,7.11
2016-04-18T02:27:21.736Z,7.08
2016-04-18T02:28:21.739Z,7.05
2016-04-18T02:29:21.742Z,7.11
2016-04-18T02:30:21.729Z,7.1
2016-04-18T02:31:21.747Z,7.11
2016-04-18T02:32:21.735Z,7.05
2016-04-18T02:33:21.737Z,7.14
2016-04-18T02:34:21.740Z,7.11
2016-04-18T02:35:21.743Z,7.08
2016-04-18T02:36:21.729Z,7.11
2016-04-18T02:37:21.732Z,7.07
2016-04-18T02:38:21.750Z,7.1
2016-04-18T02:39:21.754Z,7.07
2016-04-18T02:40:21.741Z,6.96
2016-04-18T02:41:21.743Z,7.04
2016-04-18T02:42:21.730Z,6.96
2016-04-18T02:43:21.732Z,6.96
2016-04-18T02:44:21.734Z,6.96
2016-04-18T02:45:21.722Z,7.03
2016-04-18T02:46:21.725Z,6.95
2016-04-18T02:47:21.728Z,6.97
2016-04-18T02:48:21.730Z,7.03
2016-04-18T02:49:21.733Z,7.07
2016-04-18T02:50:21.720Z,7
2016-04-18T02:51:21.723Z,7.03
2016-04-18T02:52:21.725Z,7.01
2016-04-18T02:53:21.728Z,6.96
2016-04-18T02:54:22.044Z,6.96
2016-04-18T02:55:21.719Z,6.96
2016-04-18T02:56:21.721Z,7
2016-04-18T02:57:21.724Z,7.01
2016-04-18T02:58:21.726Z,7
2016-04-18T02:59:21.730Z,7.11
2016-04-18T03:00:21.731Z,7.07
2016-04-18T03:01:21.719Z,7.07
2016-04-18T03:02:21.721Z,7.04
2016-04-18T03:03:21.724Z,7.11
2016-04-18T03:04:21.726Z,7.07
2016-04-18T03:05:21.713Z,7.05
2016-04-18T03:06:21.919Z,7.07
2016-04-18T03:07:21.719Z,7.07
2016-04-18T03:08:21.722Z,7.14
2016-04-18T03:09:21.616Z,7.07
2016-04-18T03:10:21.727Z,7.07
2016-04-18T03:11:21.730Z,7.08
2016-04-18T03:12:21.732Z,7.03
2016-04-18T03:13:21.720Z,7.1
2016-04-18T03:14:21.723Z,7.11
2016-04-18T03:15:21.710Z,7.08
2016-04-18T03:16:21.712Z,7.11
2016-04-18T03:17:21.715Z,7.04
2016-04-18T03:18:21.734Z,7.07
2016-04-18T03:19:21.704Z,7.11
2016-04-18T03:20:21.707Z,7.08
2016-04-18T03:21:21.725Z,7.1
2016-04-18T03:22:21.728Z,7.07
2016-04-18T03:23:21.715Z,7.05
2016-04-18T03:24:21.812Z,7.13
2016-04-18T03:25:21.705Z,7.18
2016-04-18T03:26:21.723Z,7.1
2016-04-18T03:27:21.710Z,7.07
2016-04-18T03:28:21.713Z,7.11
2016-04-18T03:29:21.715Z,6.95
2016-04-18T03:30:21.733Z,6.95
2016-04-18T03:31:21.721Z,6.97
2016-04-18T03:32:21.708Z,6.96
2016-04-18T03:33:21.711Z,6.82
2016-04-18T03:34:21.713Z,6.83
2016-04-18T03:35:21.701Z,6.82
2016-04-18T03:36:21.703Z,6.74
2016-04-18T03:37:21.706Z,6.75
2016-04-18T03:38:21.709Z,6.82
2016-04-18T03:39:21.680Z,6.71
2016-04-18T03:40:21.715Z,6.82
2016-04-18T03:41:21.717Z,6.74
2016-04-18T03:42:21.704Z,6.74
2016-04-18T03:43:21.691Z,6.72
2016-04-18T03:44:21.709Z,6.67
2016-04-18T03:45:21.728Z,6.62
2016-04-18T03:46:21.698Z,6.64
2016-04-18T03:47:21.718Z,6.62
2016-04-18T03:48:21.720Z,6.67
2016-04-18T03:49:21.707Z,6.64
2016-04-18T03:50:21.709Z,6.62
2016-04-18T03:51:21.697Z,6.57
2016-04-18T03:52:21.715Z,6.49
2016-04-18T03:53:21.702Z,6.53
2016-04-18T03:54:21.705Z,6.49
2016-04-18T03:55:21.691Z,6.56
2016-04-18T03:56:21.694Z,6.5
2016-04-18T03:57:21.697Z,6.49
2016-04-18T03:58:21.700Z,6.52
2016-04-18T03:59:21.703Z,6.53
2016-04-18T04:00:21.689Z,6.56
2016-04-18T04:01:21.692Z,6.53
2016-04-18T04:02:21.695Z,6.54
2016-04-18T04:03:21.698Z,6.49
2016-04-18T04:04:21.700Z,6.49
2016-04-18T04:05:21.688Z,6.49
2016-04-18T04:06:21.690Z,6.5
2016-04-18T04:07:21.693Z,6.54
2016-04-18T04:08:21.696Z,6.5
2016-04-18T04:09:21.729Z,6.49
2016-04-18T04:10:21.701Z,6.56
2016-04-18T04:11:21.704Z,6.49
2016-04-18T04:12:21.707Z,6.6
2016-04-18T04:13:21.693Z,6.5
2016-04-18T04:14:21.696Z,6.53
2016-04-18T04:15:21.699Z,6.52
2016-04-18T04:16:21.701Z,6.53
2016-04-18T04:17:21.704Z,6.47
2016-04-18T04:18:21.692Z,6.65
2016-04-18T04:19:21.944Z,6.47
2016-04-18T04:20:21.681Z,6.49
2016-04-18T04:21:21.699Z,6.52
2016-04-18T04:22:21.687Z,6.65
2016-04-18T04:23:21.689Z,6.67
2016-04-18T04:24:21.723Z,6.65
2016-04-18T04:25:21.679Z,6.68
2016-04-18T04:26:21.681Z,6.68
2016-04-18T04:27:21.700Z,6.7
2016-04-18T04:28:21.686Z,6.74
2016-04-18T04:29:21.690Z,6.68
2016-04-18T04:30:21.692Z,6.83
2016-04-18T04:31:21.695Z,6.8
2016-04-18T04:32:21.697Z,6.75
2016-04-18T04:33:21.685Z,6.83
2016-04-18T04:34:21.688Z,6.83
2016-04-18T04:35:21.674Z,6.9
2016-04-18T04:36:21.693Z,6.9
2016-04-18T04:37:21.679Z,7
2016-04-18T04:38:21.682Z,6.9
2016-04-18T04:39:21.685Z,6.87
2016-04-18T04:40:21.688Z,6.86
2016-04-18T04:41:21.675Z,6.86
2016-04-18T04:42:21.677Z,6.95
2016-04-18T04:43:21.680Z,6.97
2016-04-18T04:44:21.682Z,6.97
2016-04-18T04:45:21.670Z,7.1
2016-04-18T04:46:21.672Z,6.89
2016-04-18T04:47:21.689Z,6.87
2016-04-18T04:48:21.677Z,6.93
2016-04-18T04:49:21.695Z,6.87
2016-04-18T04:50:21.683Z,6.85
2016-04-18T04:51:21.686Z,6.87
2016-04-18T04:52:21.672Z,6.77
2016-04-18T04:53:21.675Z,6.77
2016-04-18T04:54:21.694Z,6.74
2016-04-18T04:55:21.680Z,6.71
2016-04-18T04:56:21.683Z,6.77
2016-04-18T04:57:21.671Z,6.68
2016-04-18T04:58:21.673Z,6.68
2016-04-18T04:59:21.660Z,6.74
2016-04-18T05:00:21.679Z,6.75
2016-04-18T05:01:21.665Z,6.71
2016-04-18T05:02:21.684Z,6.67
2016-04-18T05:03:21.670Z,6.71
2016-04-18T05:04:21.657Z,6.74
2016-04-18T05:05:21.676Z,6.71
2016-04-18T05:06:21.663Z,6.64
2016-04-18T05:07:21.682Z,6.68
2016-04-18T05:08:21.684Z,6.71
2016-04-18T05:09:21.671Z,6.71
2016-04-18T05:10:21.673Z,6.67
2016-04-18T05:11:21.661Z,6.67
2016-04-18T05:12:21.664Z,6.6
2016-04-18T05:13:21.666Z,6.65
2016-04-18T05:14:21.669Z,6.6
2016-04-18T05:15:21.672Z,6.7
2016-04-18T05:16:21.675Z,6.6
2016-04-18T05:17:21.677Z,6.6
2016-04-18T05:18:21.680Z,6.71
2016-04-18T05:19:21.697Z,6.59
2016-04-18T05:20:21.653Z,6.68
2016-04-18T05:21:21.688Z,6.71
2016-04-18T05:22:21.659Z,6.75
2016-04-18T05:23:21.661Z,6.7
2016-04-18T05:24:21.664Z,6.74
2016-04-18T05:25:21.667Z,6.82
2016-04-18T05:26:21.654Z,6.77
2016-04-18T05:27:21.547Z,6.8
2016-04-18T05:28:21.659Z,6.74
2016-04-18T05:29:21.662Z,6.82
2016-04-18T05:30:21.655Z,6.77
2016-04-18T05:31:21.658Z,6.78
2016-04-18T05:32:21.692Z,6.83
2016-04-18T05:33:21.647Z,6.85
2016-04-18T05:34:21.650Z,6.87
2016-04-18T05:35:21.668Z,6.96
2016-04-18T05:36:21.655Z,6.95
2016-04-18T05:37:21.674Z,6.95
2016-04-18T05:38:21.661Z,6.92
2016-04-18T05:39:21.649Z,6.96
2016-04-18T05:40:21.666Z,6.97
2016-04-18T05:41:21.654Z,6.96
2016-04-18T05:42:21.671Z,6.96
2016-04-18T05:43:21.659Z,7
2016-04-18T05:44:21.645Z,7.11
2016-04-18T05:45:21.648Z,7.07
2016-04-18T05:46:21.667Z,7.08
2016-04-18T05:47:21.669Z,7.13
2016-04-18T05:48:21.642Z,7.11
2016-04-18T05:49:21.659Z,7.11
2016-04-18T05:50:21.662Z,7.08
2016-04-18T05:51:21.649Z,7.07
2016-04-18T05:52:21.652Z,7.14
2016-04-18T05:53:21.639Z,7.19
2016-04-18T05:54:21.642Z,7.25
2016-04-18T05:55:21.645Z,7.14
2016-04-18T05:56:21.648Z,7.19
2016-04-18T05:57:21.650Z,7.28
2016-04-18T05:58:21.653Z,7.23
2016-04-18T05:59:21.639Z,7.36
2016-04-18T06:00:21.642Z,7.43
2016-04-18T06:01:21.644Z,7.4
2016-04-18T06:02:21.647Z,7.47
2016-04-18T06:03:21.650Z,7.48
2016-04-18T06:04:21.653Z,7.48
2016-04-18T06:05:21.656Z,7.48
2016-04-18T06:06:21.643Z,7.44
2016-04-18T06:07:21.646Z,7.48
2016-04-18T06:08:21.648Z,7.61
2016-04-18T06:09:21.651Z,7.61
2016-04-18T06:10:21.637Z,7.66
2016-04-18T06:11:21.640Z,7.55
2016-04-18T06:12:21.643Z,7.55
2016-04-18T06:13:21.646Z,7.66
2016-04-18T06:14:21.649Z,7.77
2016-04-18T06:15:21.635Z,7.75
2016-04-18T06:16:21.638Z,7.8
2016-04-18T06:17:21.640Z,7.72
2016-04-18T06:18:21.644Z,7.78
2016-04-18T06:19:21.646Z,7.72
2016-04-18T06:20:21.649Z,7.85
2016-04-18T06:21:21.651Z,7.88
2016-04-18T06:22:21.639Z,7.9
2016-04-18T06:23:21.641Z,7.98
2016-04-18T06:24:21.628Z,7.98
2016-04-18T06:25:21.647Z,7.96
2016-04-18T06:26:21.634Z,8.01
2016-04-18T06:27:21.653Z,7.98
2016-04-18T06:28:21.639Z,8.02
2016-04-18T06:29:21.642Z,8.01
2016-04-18T06:30:21.645Z,8.08
2016-04-18T06:31:21.647Z,8.09
2016-04-18T06:32:21.650Z,8.14
2016-04-18T06:33:21.637Z,8.26
2016-04-18T06:34:21.641Z,8.21
2016-04-18T06:35:21.643Z,8.24
2016-04-18T06:36:21.646Z,8.18
2016-04-18T06:37:21.649Z,8.16
2016-04-18T06:38:21.979Z,8.13
2016-04-18T06:39:21.637Z,8.23
2016-04-18T06:40:21.641Z,8.41
2016-04-18T06:41:21.643Z,8.49
2016-04-18T06:42:21.646Z,8.68
2016-04-18T06:43:21.649Z,8.68
2016-04-18T06:44:21.651Z,8.72
2016-04-18T06:45:21.638Z,8.77
2016-04-18T06:46:21.640Z,8.89
2016-04-18T06:47:21.643Z,9
2016-04-18T06:48:21.646Z,9.02
2016-04-18T06:49:21.649Z,9.12
2016-04-18T06:50:21.637Z,8.99
2016-04-18T06:51:21.639Z,9.05
2016-04-18T06:52:21.642Z,8.87
2016-04-18T06:53:21.628Z,8.89
2016-04-18T06:54:21.631Z,8.71
2016-04-18T06:55:21.634Z,8.6
2016-04-18T06:56:21.637Z,8.56
2016-04-18T06:57:21.639Z,8.59
2016-04-18T06:58:21.642Z,8.44
2016-04-18T06:59:21.644Z,8.45
2016-04-18T07:00:21.631Z,8.38
2016-04-18T07:01:21.633Z,8.36
2016-04-18T07:02:21.636Z,8.32
2016-04-18T07:03:21.639Z,8.39
2016-04-18T07:04:21.657Z,8.38
2016-04-18T07:05:21.644Z,8.34
2016-04-18T07:06:21.476Z,8.36
2016-04-18T07:07:21.650Z,8.38
2016-04-18T07:08:21.638Z,8.32
2016-04-18T07:09:21.641Z,8.36
2016-04-18T07:10:21.643Z,8.34
2016-04-18T07:11:21.646Z,8.26
2016-04-18T07:12:21.632Z,8.2
2016-04-18T07:13:21.651Z,8.23
2016-04-18T07:14:21.637Z,8.38
2016-04-18T07:15:21.641Z,8.34
2016-04-18T07:16:21.659Z,8.41
2016-04-18T07:17:21.646Z,8.46
2016-04-18T07:18:21.648Z,8.53
2016-04-18T07:19:21.651Z,8.6
2016-04-18T07:20:21.638Z,8.74
2016-04-18T07:21:21.648Z,8.9
2016-04-18T07:22:21.635Z,8.92
2016-04-18T07:23:21.638Z,9.11
2016-04-18T07:24:21.641Z,9
2016-04-18T07:25:21.659Z,9.15
2016-04-18T07:26:21.646Z,9.19
2016-04-18T07:27:21.633Z,9.26
2016-04-18T07:28:21.652Z,9.42
2016-04-18T07:29:21.654Z,9.37
2016-04-18T07:30:21.641Z,9.37
2016-04-18T07:31:21.644Z,9.52
2016-04-18T07:32:21.646Z,9.64
2016-04-18T07:33:21.493Z,9.73
2016-04-18T07:34:21.636Z,9.76
2016-04-18T07:35:21.638Z,9.76
2016-04-18T07:36:21.641Z,9.74
2016-04-18T07:37:21.643Z,9.7
2016-04-18T07:38:21.646Z,9.77
2016-04-18T07:39:21.649Z,9.7
2016-04-18T07:40:21.651Z,9.63
2016-04-18T07:41:21.654Z,9.66
2016-04-18T07:42:21.657Z,9.59
2016-04-18T07:43:21.644Z,9.67
2016-04-18T07:44:21.647Z,9.63
2016-04-18T07:45:21.650Z,9.62
2016-04-18T07:46:21.636Z,9.64
2016-04-18T07:47:21.639Z,9.63
2016-04-18T07:48:21.658Z,9.58
2016-04-18T07:49:21.661Z,9.52
2016-04-18T07:50:21.648Z,9.56
2016-04-18T07:51:21.651Z,9.62
2016-04-18T07:52:21.653Z,9.58
2016-04-18T07:53:21.641Z,9.59
2016-04-18T07:54:21.643Z,9.52
2016-04-18T07:55:21.849Z,9.69
2016-04-18T07:56:21.663Z,9.62
2016-04-18T07:57:21.651Z,9.69
2016-04-18T07:58:21.669Z,9.69
2016-04-18T07:59:21.657Z,9.76
2016-04-18T08:00:21.659Z,9.66
2016-04-18T08:01:22.068Z,9.67
2016-04-18T08:02:21.664Z,9.76
2016-04-18T08:03:21.652Z,9.76
2016-04-18T08:04:21.654Z,9.99
2016-04-18T08:05:21.657Z,10.15
2016-04-18T08:06:21.659Z,10.31
2016-04-18T08:07:21.662Z,10.39
2016-04-18T08:08:21.665Z,10.59
2016-04-18T08:09:21.668Z,10.71
2016-04-18T08:10:21.670Z,10.82
2016-04-18T08:11:21.673Z,11.1
2016-04-18T08:12:21.659Z,11.16
2016-04-18T08:13:21.662Z,11.27
2016-04-18T08:14:21.712Z,11.31
2016-04-18T08:15:21.667Z,11.31
2016-04-18T08:16:21.670Z,11.35
2016-04-18T08:17:21.673Z,11.4
2016-04-18T08:18:21.661Z,11.37
2016-04-18T08:19:21.678Z,11.34
2016-04-18T08:20:21.667Z,11.35
2016-04-18T08:21:21.684Z,11.4
2016-04-18T08:22:21.703Z,11.43
2016-04-18T08:23:21.675Z,11.38
2016-04-18T08:24:21.678Z,11.27
2016-04-18T08:25:21.789Z,11.31
2016-04-18T08:26:21.682Z,11.37
2016-04-18T08:27:21.685Z,11.38
2016-04-18T08:28:21.671Z,11.35
2016-04-18T08:29:21.674Z,11.27
2016-04-18T08:30:21.693Z,11.25
2016-04-18T08:31:21.680Z,11.38
2016-04-18T08:32:21.683Z,11.41
2016-04-18T08:33:21.686Z,11.41
2016-04-18T08:34:21.704Z,11.43
2016-04-18T08:35:21.690Z,11.56
2016-04-18T08:36:21.694Z,11.6
2016-04-18T08:37:21.696Z,11.62
2016-04-18T08:38:21.715Z,11.76
2016-04-18T08:39:21.702Z,11.8
2016-04-18T08:40:21.720Z,11.91
2016-04-18T08:41:21.691Z,12.02
2016-04-18T08:42:21.693Z,12.15
2016-04-18T08:43:21.696Z,12.12
2016-04-18T08:44:21.699Z,12.07
2016-04-18T08:45:21.718Z,11.97
2016-04-18T08:46:21.704Z,11.88
2016-04-18T08:47:21.707Z,11.89
2016-04-18T08:48:21.709Z,11.95
2016-04-18T08:49:21.712Z,11.93
2016-04-18T08:50:21.715Z,11.86
2016-04-18T08:51:21.703Z,11.83
2016-04-18T08:52:21.706Z,11.81
2016-04-18T08:53:22.161Z,11.7
2016-04-18T08:54:21.726Z,11.62
2016-04-18T08:55:21.729Z,11.58
2016-04-18T08:56:21.731Z,11.58
2016-04-18T08:57:21.718Z,11.52
2016-04-18T08:58:21.721Z,11.38
2016-04-18T08:59:21.724Z,11.26
2016-04-18T09:00:21.710Z,11.07
2016-04-18T09:01:21.730Z,10.89
2016-04-18T09:02:21.716Z,10.82
2016-04-18T09:03:21.719Z,10.72
2016-04-18T09:04:21.721Z,10.77
2016-04-18T09:05:21.725Z,10.84
2016-04-18T09:06:21.727Z,10.68
2016-04-18T09:07:21.730Z,10.65
2016-04-18T09:08:21.733Z,10.68
2016-04-18T09:09:21.736Z,10.69
2016-04-18T09:10:21.784Z,10.8
2016-04-18T09:11:21.740Z,10.84
2016-04-18T09:12:21.744Z,10.94
2016-04-18T09:13:21.730Z,11.18
2016-04-18T09:14:21.734Z,11.34
2016-04-18T09:15:21.736Z,11.53
2016-04-18T09:16:21.739Z,11.56
2016-04-18T09:17:21.741Z,11.58
2016-04-18T09:18:21.744Z,11.59
2016-04-18T09:19:21.747Z,11.49
2016-04-18T09:20:21.750Z,11.51
2016-04-18T09:21:21.777Z,11.52
2016-04-18T09:22:21.806Z,11.51
2016-04-18T09:23:21.882Z,11.45
2016-04-18T09:24:21.896Z,11.48
2016-04-18T09:25:22.001Z,11.52
2016-04-18T09:26:21.968Z,11.45
2016-04-18T09:27:21.986Z,11.44
2016-04-18T09:28:22.021Z,11.44
2016-04-18T09:29:22.022Z,11.51
2016-04-18T09:30:22.041Z,11.48
2016-04-18T09:31:22.053Z,11.38
2016-04-18T09:32:22.061Z,11.41
2016-04-18T09:33:22.052Z,11.48
2016-04-18T09:34:22.060Z,11.34
2016-04-18T09:35:22.085Z,11.27
2016-04-18T09:36:22.075Z,11.19
2016-04-18T09:37:22.079Z,10.94
2016-04-18T09:38:22.101Z,10.75
2016-04-18T09:39:22.088Z,10.59
2016-04-18T09:40:22.109Z,10.33
2016-04-18T09:41:22.097Z,10.39
2016-04-18T09:42:22.117Z,10.36
2016-04-18T09:43:22.120Z,10.36
2016-04-18T09:44:22.107Z,10.36
2016-04-18T09:45:22.096Z,10.51
2016-04-18T09:46:22.114Z,10.58
2016-04-18T09:47:22.102Z,10.59
2016-04-18T09:48:22.120Z,10.68
2016-04-18T09:49:22.122Z,10.58
2016-04-18T09:50:22.109Z,10.49
2016-04-18T09:51:22.112Z,10.49
2016-04-18T09:52:22.115Z,10.62
2016-04-18T09:53:22.117Z,10.71
2016-04-18T09:54:22.135Z,10.86
2016-04-18T09:55:22.138Z,11
2016-04-18T09:56:22.126Z,11.12
2016-04-18T09:57:22.129Z,11.33
2016-04-18T09:58:22.131Z,11.45
2016-04-18T09:59:22.149Z,11.52
2016-04-18T10:00:22.121Z,11.52
2016-04-18T10:01:22.123Z,11.53
2016-04-18T10:02:22.126Z,11.53
2016-04-18T10:03:22.128Z,11.43
2016-04-18T10:04:22.131Z,11.3
2016-04-18T10:05:22.134Z,11.19
2016-04-18T10:06:22.153Z,11.15
2016-04-18T10:07:22.140Z,10.98
2016-04-18T10:08:22.142Z,10.84
2016-04-18T10:09:22.145Z,10.75
2016-04-18T10:10:22.148Z,10.84
2016-04-18T10:11:22.166Z,10.8
2016-04-18T10:12:22.137Z,10.9
2016-04-18T10:13:22.143Z,10.92
2016-04-18T10:14:22.145Z,11.02
2016-04-18T10:15:22.164Z,10.94
2016-04-18T10:16:22.151Z,10.87
2016-04-18T10:17:22.154Z,10.79
2016-04-18T10:18:22.156Z,10.92
2016-04-18T10:19:22.143Z,10.87
2016-04-18T10:20:22.161Z,10.89
2016-04-18T10:21:22.164Z,11.01
2016-04-18T10:22:22.152Z,11.01
2016-04-18T10:23:22.154Z,11.18
2016-04-18T10:24:22.157Z,11.34
2016-04-18T10:25:22.160Z,11.58
2016-04-18T10:26:22.162Z,11.71
2016-04-18T10:27:22.290Z,11.95
2016-04-18T10:28:22.558Z,12.08
2016-04-18T10:29:22.155Z,12.14
2016-04-18T10:30:22.173Z,12.23
2016-04-18T10:31:22.176Z,12.37
2016-04-18T10:32:22.178Z,12.48
2016-04-18T10:33:22.196Z,12.7
2016-04-18T10:34:22.168Z,12.83
2016-04-18T10:35:22.218Z,12.95
2016-04-18T10:36:22.174Z,12.94
2016-04-18T10:37:22.176Z,13.03
2016-04-18T10:38:22.179Z,13.09
2016-04-18T10:39:22.181Z,13.11
2016-04-18T10:40:22.201Z,13.03
2016-04-18T10:41:22.202Z,13.03
2016-04-18T10:42:22.205Z,13.21
2016-04-18T10:43:22.192Z,13.26
2016-04-18T10:44:22.195Z,13.39
2016-04-18T10:45:22.213Z,13.58
2016-04-18T10:46:22.201Z,13.62
2016-04-18T10:47:22.688Z,13.68
2016-04-18T10:48:22.394Z,13.83
2016-04-18T10:49:22.209Z,14.04
2016-04-18T10:50:22.212Z,14.08
2016-04-18T10:51:22.229Z,13.97
2016-04-18T10:52:22.216Z,13.8
2016-04-18T10:53:22.219Z,13.7
2016-04-18T10:54:22.222Z,13.78
2016-04-18T10:55:22.209Z,13.94
2016-04-18T10:56:29.352Z,13.91
2016-04-18T10:57:26.058Z,13.94
2016-04-18T10:58:22.232Z,13.98
2016-04-18T10:59:22.236Z,13.98
2016-04-18T11:00:22.066Z,13.95
2016-04-18T11:01:22.226Z,13.95
2016-04-18T11:02:22.243Z,13.91
2016-04-18T11:03:22.231Z,13.98
2016-04-18T11:04:22.233Z,13.73
2016-04-18T11:05:22.251Z,13.5
2016-04-18T11:06:22.239Z,13.26
2016-04-18T11:07:22.241Z,13.28
2016-04-18T11:08:22.259Z,13.08
2016-04-18T11:09:22.247Z,12.84
2016-04-18T11:10:22.250Z,12.86
2016-04-18T11:11:22.267Z,12.78
2016-04-18T11:12:22.255Z,12.9
2016-04-18T11:13:22.258Z,12.98
2016-04-18T11:14:22.260Z,13.23
2016-04-18T11:15:22.264Z,13.26
2016-04-18T11:16:22.266Z,13.28
2016-04-18T11:17:22.269Z,13.26
2016-04-18T11:18:22.271Z,13.12
2016-04-18T11:19:22.289Z,13.19
2016-04-18T11:20:22.277Z,13.06
2016-04-18T11:21:22.294Z,12.99
2016-04-18T11:22:22.283Z,12.87
2016-04-18T11:23:22.285Z,12.98
2016-04-18T11:24:22.303Z,12.8
2016-04-18T11:25:22.290Z,12.83
2016-04-18T11:26:22.293Z,12.88
2016-04-18T11:27:22.295Z,12.93
2016-04-18T11:28:22.299Z,12.8
2016-04-18T11:29:22.301Z,12.72
2016-04-18T11:30:22.303Z,12.73
2016-04-18T11:31:22.306Z,12.62
2016-04-18T11:32:22.309Z,12.65
2016-04-18T11:33:22.312Z,12.69
2016-04-18T11:34:22.315Z,12.8
2016-04-18T11:35:22.317Z,12.81
2016-04-18T11:36:22.319Z,12.78
2016-04-18T11:37:22.337Z,12.95
2016-04-18T11:38:22.340Z,13.19
2016-04-18T11:39:22.328Z,13.27
2016-04-18T11:40:22.346Z,13.37
2016-04-18T11:41:22.333Z,13.54
2016-04-18T11:42:22.336Z,13.54
2016-04-18T11:43:22.338Z,13.54
2016-04-18T11:44:22.356Z,13.5
2016-04-18T11:45:22.344Z,13.58
2016-04-18T11:46:22.347Z,13.49
2016-04-18T11:47:22.349Z,13.47
2016-04-18T11:48:22.352Z,13.31
2016-04-18T11:49:22.355Z,13.26
2016-04-18T11:50:22.357Z,13.24
2016-04-18T11:51:22.360Z,13.24
2016-04-18T11:52:22.363Z,13.26
2016-04-18T11:53:22.366Z,13.21
2016-04-18T11:54:22.369Z,13.27
2016-04-18T11:55:22.386Z,13.24
2016-04-18T11:56:22.374Z,13.52
2016-04-18T11:57:22.391Z,13.58
2016-04-18T11:58:22.410Z,13.62
2016-04-18T11:59:22.381Z,13.49
2016-04-18T12:00:22.384Z,13.43
2016-04-18T12:01:22.387Z,13.54
2016-04-18T12:02:22.390Z,13.61
2016-04-18T12:03:22.392Z,13.71
2016-04-18T12:04:22.396Z,13.75
2016-04-18T12:05:22.397Z,13.65
2016-04-18T12:06:22.384Z,13.37
2016-04-18T12:07:22.403Z,13.03
2016-04-18T12:08:22.406Z,12.84
